Canton, Oklahoma
Current Conditions -  °F | °C
As of 6:15 PM on Saturday 25 Oct 2014 (Local Time) from KJWG Reporting Station
Clear Clear  
Wind Chill: 84°   Ceiling: Unl
Heat Index: 84°   Visibility: 10mi
Dew Point: 59°   Wind: 5mph
Humidity: 43%   Direction: 180°S
Pressure: 30.02"   Gusts: NA
Location:  36.05°N, 98.59°W
Report Text: KJWG 252315Z AUTO 18004KT 10SM CLR 29/15 A3002 RMK AO2 T02890150
Loading
Personal Weather Stations






























Interactive Weather Map
Tropical Storm Tracking
New forecast layout! Learn more

10-Day Weather Forecast

Advertisements
Track Severe Weather on mobile